Time;durP1;ratioP1;P1;durP2;ratioP2;P2;SDS_P1;SDS_P2;PMS_P1;PMS_P2;Temp;Humidity;BMP_temperature;BMP_pressure;BME280_temperature;BME280_humidity;BME280_pressure;Samples;Min_cycle;Max_cycle;Signal;HPM_P1;HPM_P2
2021/12/13 00:01:50;;;;;;;7.78;4.47;;;5.20;78.60;;;4.29;65.10;95512.69;5018776;28;20216;-81
2021/12/13 00:04:44;;;;;;;5.65;4.45;;;5.20;78.60;;;4.30;64.84;95519.53;5067216;28;20215;-83
2021/12/13 00:07:26;;;;;;;5.15;4.15;;;5.20;78.60;;;4.35;64.75;95525.13;5051267;28;20180;-82
2021/12/13 00:09:58;;;;;;;7.03;4.85;;;5.30;78.60;;;4.33;65.51;95527.88;5034120;28;20245;-81
2021/12/13 00:12:34;;;;;;;5.72;4.50;;;5.30;78.70;;;4.38;65.07;95513.66;5034547;28;20216;-81
2021/12/13 00:15:09;;;;;;;5.65;4.05;;;5.30;78.70;;;4.40;65.05;95517.72;4998690;28;20264;-82
2021/12/13 00:17:47;;;;;;;6.43;3.67;;;5.30;78.60;;;4.43;64.92;95521.84;4998798;28;20204;-82
2021/12/13 00:20:29;;;;;;;5.93;4.22;;;5.30;78.60;;;4.45;64.90;95525.94;5014994;28;20228;-82
2021/12/13 00:23:10;;;;;;;5.80;4.25;;;5.40;78.70;;;4.47;64.87;95531.00;5015103;28;20254;-81
2021/12/13 00:25:44;;;;;;;7.25;3.95;;;5.40;78.60;;;4.49;65.06;95534.25;5050281;28;20227;-82
2021/12/13 00:28:15;;;;;;;5.25;4.13;;;5.40;78.60;;;4.40;65.19;95514.34;5035293;28;20680;-82
2021/12/13 00:31:06;;;;;;;6.55;4.45;;;5.40;78.60;;;4.46;65.17;95529.38;5046830;28;20266;-81
2021/12/13 00:34:05;;;;;;;6.55;4.65;;;5.40;78.60;;;4.39;65.28;95536.88;5054597;28;20693;-81
2021/12/13 00:36:47;;;;;;;5.43;4.43;;;5.40;78.60;;;4.39;65.45;95521.28;5037989;28;20270;-82
2021/12/13 00:39:54;;;;;;;6.75;5.00;;;5.40;78.60;;;4.41;65.00;95531.56;5071086;28;20223;-81
2021/12/13 00:42:25;;;;;;;6.03;4.75;;;5.40;78.60;;;4.46;65.05;95531.97;5054574;28;20269;-82
2021/12/13 00:45:05;;;;;;;7.97;4.80;;;5.40;78.60;;;4.45;64.90;95530.31;5054831;28;20681;-82
2021/12/13 00:47:35;;;;;;;7.53;5.95;;;5.40;78.60;;;4.43;65.22;95527.88;5023584;28;20188;-81
2021/12/13 00:50:02;;;;;;;9.27;5.57;;;5.40;78.50;;;4.44;65.17;95529.50;5038063;28;20232;-83
2021/12/13 00:52:36;;;;;;;7.22;5.10;;;5.40;78.50;;;4.44;64.95;95531.28;5053602;28;20192;-82
2021/12/13 00:55:22;;;;;;;7.25;5.50;;;5.40;78.50;;;4.39;65.12;95517.88;5037559;28;20236;-81
2021/12/13 00:58:11;;;;;;;7.28;5.35;;;5.40;78.70;;;4.42;65.33;95530.56;5033586;28;20189;-81
2021/12/13 01:00:52;;;;;;;8.35;5.40;;;5.40;78.60;;;4.38;65.25;95524.88;5034618;28;20635;-82
2021/12/13 01:03:57;;;;;;;7.82;5.43;;;5.40;78.70;;;4.33;65.62;95540.84;5034502;28;20556;-83
2021/12/13 01:06:54;;;;;;;7.30;5.43;;;5.40;78.80;;;4.34;65.52;95539.06;5012962;28;20284;-81
2021/12/13 01:10:18;;;;;;;6.85;4.95;;;5.40;78.80;;;4.31;65.45;95547.97;5044140;28;20231;-80
2021/12/13 01:12:50;;;;;;;5.90;4.80;;;5.40;78.80;;;4.29;65.90;95543.88;5032283;28;20196;-82
2021/12/13 01:15:36;;;;;;;6.45;4.95;;;5.30;78.70;;;4.30;65.85;95548.91;5022328;28;20321;-81
2021/12/13 01:18:32;;;;;;;6.18;4.65;;;5.30;78.80;;;4.32;65.38;95552.19;5042899;28;20267;-81
2021/12/13 01:21:31;;;;;;;7.70;5.10;;;5.30;78.90;;;4.35;65.56;95553.69;5029786;28;20678;-81
2021/12/13 01:24:14;;;;;;;6.07;4.93;;;5.30;78.80;;;4.35;65.52;95563.28;5057599;28;20216;-82
2021/12/13 01:26:49;;;;;;;7.53;5.32;;;5.30;78.80;;;4.37;65.38;95549.19;5033976;28;20187;-81
2021/12/13 01:29:22;;;;;;;7.32;5.20;;;5.30;78.90;;;4.36;65.61;95550.16;5015616;28;20269;-81
2021/12/13 01:31:59;;;;;;;7.82;5.68;;;5.30;78.80;;;4.37;65.42;95553.56;5050602;28;20234;-81
2021/12/13 01:34:29;;;;;;;6.55;5.50;;;5.30;78.90;;;4.36;65.85;95546.72;5017594;28;20235;-81
2021/12/13 01:37:15;;;;;;;6.28;4.80;;;5.30;78.90;;;4.35;65.92;95550.28;5045772;28;20246;-82
2021/12/13 01:39:51;;;;;;;6.55;5.40;;;5.30;79.00;;;4.32;65.80;95541.81;5035133;28;20216;-81
2021/12/13 01:42:29;;;;;;;7.43;4.78;;;5.30;79.00;;;4.30;65.77;95530.72;5052974;28;20250;-82
2021/12/13 01:45:05;;;;;;;6.65;5.22;;;5.30;79.00;;;4.27;65.98;95538.81;5050551;28;20216;-82
2021/12/13 01:47:41;;;;;;;7.32;5.68;;;5.30;79.00;;;4.30;65.50;95545.50;5033881;28;20216;-81
2021/12/13 01:50:23;;;;;;;7.05;5.15;;;5.30;79.00;;;4.29;65.63;95543.88;5019715;28;20223;-82
2021/12/13 01:52:53;;;;;;;7.60;5.50;;;5.40;79.20;;;4.32;65.57;95548.75;5052116;28;20220;-82
2021/12/13 01:55:33;;;;;;;6.93;5.50;;;5.30;79.10;;;4.29;65.84;95539.47;5035776;28;20237;-81
2021/12/13 02:01:09;;;;;;;9.05;5.90;;;5.30;79.20;;;4.25;65.98;95534.72;5036597;28;20258;-82
2021/12/13 02:04:02;;;;;;;6.70;5.10;;;5.30;79.10;;;4.27;66.02;95535.38;5029952;28;20212;-82
2021/12/13 02:06:50;;;;;;;6.60;5.35;;;5.30;79.20;;;4.28;66.00;95540.44;5014401;28;20675;-82
2021/12/13 02:09:25;;;;;;;7.18;5.20;;;5.30;79.20;;;4.25;65.90;95551.09;5014569;28;20212;-82
2021/12/13 02:11:58;;;;;;;7.30;5.40;;;5.30;79.20;;;4.24;65.97;95549.47;5030619;28;20196;-81
2021/12/13 02:14:32;;;;;;;6.15;5.10;;;5.30;79.20;;;4.29;65.83;95552.47;5048890;28;20590;-82
2021/12/13 02:17:12;;;;;;;5.95;4.15;;;5.20;79.10;;;4.31;65.70;95552.34;5024678;28;20181;-83
2021/12/13 02:20:00;;;;;;;5.80;4.65;;;5.20;79.30;;;4.31;66.03;95547.97;5057247;28;20217;-81
2021/12/13 02:22:45;;;;;;;5.65;4.57;;;5.30;79.40;;;4.24;65.83;95543.47;5034521;28;20611;-81
2021/12/13 02:25:35;;;;;;;6.00;4.20;;;5.20;79.30;;;4.29;65.74;95546.47;5033823;28;20224;-82
2021/12/13 02:28:13;;;;;;;5.15;3.90;;;5.20;79.40;;;4.31;65.73;95541.97;5044896;28;20651;-82
2021/12/13 02:30:56;;;;;;;5.68;4.22;;;5.20;79.30;;;4.31;65.96;95542.75;5033283;28;20227;-81
2021/12/13 02:33:32;;;;;;;5.57;4.40;;;5.30;79.40;;;4.29;65.92;95544.66;5031218;28;20196;-83
2021/12/13 02:36:06;;;;;;;4.65;3.63;;;5.30;79.40;;;4.29;65.63;95538.66;5033195;28;20228;-83
2021/12/13 02:38:36;;;;;;;5.70;3.88;;;5.20;79.30;;;4.29;66.11;95541.25;5065588;28;20188;-81
2021/12/13 02:41:06;;;;;;;5.50;3.33;;;5.30;79.30;;;4.24;65.88;95533.88;5046288;28;20228;-81
2021/12/13 02:43:41;;;;;;;4.47;3.60;;;5.20;79.30;;;4.30;65.73;95541.13;5031932;28;20654;-82
2021/12/13 02:46:08;;;;;;;3.15;2.85;;;5.20;79.80;;;4.30;65.94;95532.53;5049915;28;20234;-83
2021/12/13 02:48:51;;;;;;;4.43;3.60;;;5.20;79.30;;;4.32;65.61;95539.22;5048281;28;20658;-81
2021/12/13 02:51:44;;;;;;;5.28;3.40;;;5.30;79.40;;;4.29;65.84;95538.66;5064590;28;20495;-83
2021/12/13 02:54:36;;;;;;;4.75;3.50;;;5.20;79.30;;;4.28;65.92;95537.03;5028436;28;20220;-82
2021/12/13 02:57:18;;;;;;;5.60;3.35;;;5.20;79.30;;;4.22;66.23;95542.75;5044849;28;20177;-82
2021/12/13 02:59:54;;;;;;;4.95;3.50;;;5.20;79.30;;;4.19;66.10;95541.25;5032206;28;20696;-82
2021/12/13 03:02:35;;;;;;;4.25;3.33;;;5.20;79.30;;;4.21;66.19;95543.72;5055316;28;20211;-83
2021/12/13 03:05:07;;;;;;;3.33;3.00;;;5.20;79.40;;;4.20;66.28;95548.09;5029579;28;20216;-81
2021/12/13 03:07:41;;;;;;;3.65;2.90;;;5.20;79.40;;;4.20;66.12;95552.47;5048783;28;20611;-83
2021/12/13 03:10:18;;;;;;;3.22;2.80;;;5.20;79.40;;;4.23;66.41;95553.00;5031019;28;20220;-81
2021/12/13 03:12:46;;;;;;;3.42;3.08;;;5.20;79.50;;;4.22;66.22;95540.16;5050350;28;20494;-83
2021/12/13 03:15:20;;;;;;;3.67;3.30;;;5.20;79.40;;;4.23;66.25;95539.22;5048072;28;20222;-82
2021/12/13 03:17:55;;;;;;;4.93;3.92;;;5.20;79.50;;;4.25;66.43;95542.50;5029862;28;20191;-83
2021/12/13 03:20:47;;;;;;;3.75;3.42;;;5.20;80.20;;;4.24;66.40;95533.88;5032366;28;20235;-81
2021/12/13 03:23:24;;;;;;;3.80;3.40;;;5.20;79.70;;;4.24;66.42;95533.06;5051291;28;20238;-82
2021/12/13 03:26:31;;;;;;;3.97;3.33;;;5.20;79.50;;;4.21;66.44;95528.13;5034925;28;20245;-82
2021/12/13 03:29:16;;;;;;;4.88;3.60;;;5.20;79.60;;;4.21;66.58;95534.16;5070249;28;20306;-81
2021/12/13 03:31:50;;;;;;;4.50;3.67;;;5.20;79.70;;;4.19;67.29;95532.63;5051670;28;20266;-83
2021/12/13 03:34:35;;;;;;;3.88;3.25;;;5.30;79.80;;;4.15;67.04;95534.69;5034390;28;20212;-82
2021/12/13 03:37:17;;;;;;;4.28;3.72;;;5.20;80.00;;;4.17;67.20;95548.34;5035205;28;20192;-83
2021/12/13 03:39:54;;;;;;;3.78;3.42;;;5.20;79.90;;;4.20;67.05;95548.09;5018403;28;20215;-82
2021/12/13 03:42:32;;;;;;;4.07;3.40;;;5.20;80.00;;;4.18;66.79;95549.19;5034675;28;20199;-82
2021/12/13 03:45:08;;;;;;;3.50;3.10;;;5.20;79.90;;;4.20;66.76;95553.28;5017841;28;20265;-82
2021/12/13 03:47:44;;;;;;;4.00;3.60;;;5.20;79.90;;;4.20;66.94;95547.25;5034502;28;20309;-82
2021/12/13 03:50:39;;;;;;;4.78;3.13;;;5.20;80.00;;;4.18;67.51;95557.78;5051126;28;20223;-82
2021/12/13 03:53:15;;;;;;;3.88;3.28;;;5.20;80.10;;;4.12;67.17;95546.16;5017529;28;20283;-82
2021/12/13 03:55:48;;;;;;;3.17;2.88;;;5.20;80.10;;;4.16;67.40;95541.53;5018022;28;20281;-82
2021/12/13 03:58:20;;;;;;;3.75;3.38;;;5.20;80.10;;;4.18;67.28;95549.19;5018702;28;20192;-81
2021/12/13 04:01:12;;;;;;;4.03;3.63;;;5.20;80.00;;;4.14;67.75;95548.66;5054713;28;20219;-81
2021/12/13 04:03:42;;;;;;;3.53;3.13;;;5.20;80.20;;;4.14;67.67;95549.47;5038594;28;20208;-83
2021/12/13 04:06:18;;;;;;;3.58;3.13;;;5.20;80.10;;;4.13;67.93;95550.41;5038575;28;20253;-83
2021/12/13 04:08:53;;;;;;;3.30;3.00;;;5.10;80.30;;;4.12;67.47;95543.56;5021159;28;20537;-80
2021/12/13 04:11:25;;;;;;;3.00;2.60;;;5.20;80.40;;;4.09;67.45;95546.44;5043886;28;20218;-81
2021/12/13 04:14:09;;;;;;;3.78;3.40;;;5.20;80.30;;;4.07;67.77;95547.56;5038058;28;20629;-83
2021/12/13 04:17:01;;;;;;;3.22;2.92;;;5.20;80.40;;;4.07;67.70;95555.34;5039104;28;20190;-82
2021/12/13 04:20:05;;;;;;;3.88;3.17;;;5.10;80.30;;;4.11;67.96;95565.31;5023933;28;20696;-81
2021/12/13 04:22:37;;;;;;;3.13;2.67;;;5.10;80.40;;;4.15;67.71;95576.22;5036651;28;20231;-81
2021/12/13 04:25:19;;;;;;;3.10;2.80;;;5.10;80.30;;;4.17;67.20;95574.31;5037096;28;20220;-82
2021/12/13 04:28:09;;;;;;;3.70;2.90;;;5.10;80.40;;;4.18;67.54;95577.75;5037960;28;20200;-82
2021/12/13 04:30:50;;;;;;;3.63;2.95;;;5.20;80.50;;;4.20;67.35;95588.81;5038257;28;20227;-82
2021/12/13 04:33:30;;;;;;;4.70;2.90;;;5.20;80.40;;;4.15;67.37;95577.06;5037799;28;20353;-82
2021/12/13 04:36:04;;;;;;;3.40;3.05;;;5.20;80.50;;;4.20;67.80;95586.22;5017161;28;20229;-81
2021/12/13 04:39:08;;;;;;;3.80;3.13;;;5.20;80.40;;;4.20;67.25;95592.25;5031831;28;20290;-82
2021/12/13 04:41:50;;;;;;;3.55;3.20;;;5.20;80.50;;;4.24;67.24;95587.59;5040553;28;20202;-82
2021/12/13 04:44:31;;;;;;;3.13;2.70;;;5.20;80.50;;;4.25;67.40;95592.66;5053872;28;20700;-82
2021/12/13 04:47:20;;;;;;;3.53;3.00;;;5.20;80.50;;;4.25;67.55;95590.06;5054465;28;20613;-81
2021/12/13 04:50:14;;;;;;;3.83;3.40;;;5.20;80.50;;;4.24;67.27;95588.41;5053889;28;20722;-81
2021/12/13 04:52:45;;;;;;;3.40;2.90;;;5.20;80.50;;;4.22;67.49;95589.50;5037510;28;20637;-82
2021/12/13 04:55:19;;;;;;;3.22;2.80;;;5.20;80.40;;;4.27;67.76;95600.28;5051928;28;20238;-81
2021/12/13 04:57:50;;;;;;;5.97;3.00;;;5.20;80.50;;;4.29;67.22;95599.19;5034249;28;20195;-81
2021/12/13 05:00:28;;;;;;;3.25;2.90;;;5.20;80.50;;;4.30;67.27;95606.03;5035665;28;20211;-82
2021/12/13 05:03:01;;;;;;;4.32;3.30;;;5.20;80.50;;;4.32;67.39;95616.28;5036132;28;20203;-81
2021/12/13 05:05:34;;;;;;;3.47;3.15;;;5.20;80.40;;;4.29;67.40;95606.19;5037367;28;20689;-82
2021/12/13 05:08:04;;;;;;;3.40;2.90;;;5.20;80.50;;;4.37;66.93;95615.88;5035673;28;20682;-81
2021/12/13 05:10:33;;;;;;;3.17;2.42;;;5.20;80.50;;;4.38;67.46;95609.75;5034322;28;20342;-81
2021/12/13 05:13:13;;;;;;;5.95;3.33;;;5.30;80.50;;;4.38;67.02;95612.34;5036660;28;20647;-81
2021/12/13 05:15:52;;;;;;;3.60;2.92;;;5.30;80.60;;;4.35;67.11;95615.22;5027266;28;20228;-81
2021/12/13 05:18:26;;;;;;;5.72;3.17;;;5.30;80.50;;;4.33;67.84;95613.56;5036123;28;20678;-81
2021/12/13 05:21:08;;;;;;;3.38;2.83;;;5.30;80.50;;;4.32;67.47;95619.72;5053146;28;20310;-81
2021/12/13 05:23:50;;;;;;;3.47;3.17;;;5.30;80.60;;;4.29;67.45;95621.75;5053297;28;20188;-81
2021/12/13 05:26:55;;;;;;;4.25;3.17;;;5.30;80.60;;;4.23;67.56;95623.13;5053178;28;20246;-80
2021/12/13 05:29:25;;;;;;;4.35;3.05;;;5.30;80.70;;;4.26;67.93;95622.84;5070020;28;20222;-81
2021/12/13 05:32:06;;;;;;;8.50;3.42;;;5.30;80.70;;;4.22;68.31;95628.44;5053589;28;20249;-81
2021/12/13 05:34:49;;;;;;;4.05;3.38;;;5.30;80.80;;;4.22;67.92;95625.84;5036808;28;20317;-81
2021/12/13 05:37:18;;;;;;;3.22;2.92;;;5.20;80.70;;;4.22;68.11;95621.47;5036731;28;20208;-80
2021/12/13 05:40:05;;;;;;;3.38;3.05;;;5.20;80.70;;;4.23;67.97;95627.50;5036723;28;20239;-81
2021/12/13 05:42:51;;;;;;;3.90;3.50;;;5.20;80.80;;;4.17;68.05;95621.06;5053176;28;20729;-81
2021/12/13 05:45:37;;;;;;;4.25;3.50;;;5.20;80.90;;;4.18;68.16;95630.50;5037127;28;20220;-81
2021/12/13 05:48:17;;;;;;;3.90;3.17;;;5.20;81.00;;;4.16;68.21;95624.59;5036411;28;20425;-80
2021/12/13 05:50:56;;;;;;;4.22;3.03;;;5.20;81.00;;;4.18;68.13;95632.28;5036440;28;20682;-81
2021/12/13 05:53:32;;;;;;;4.47;3.95;;;5.20;81.00;;;4.13;68.70;95638.69;5036382;28;20204;-81
2021/12/13 05:56:13;;;;;;;4.03;3.63;;;5.20;81.00;;;4.12;68.31;95629.25;5036223;28;20262;-81
2021/12/13 05:59:08;;;;;;;4.97;4.35;;;5.20;81.00;;;4.11;68.11;95619.84;5036299;28;20180;-81
2021/12/13 06:02:31;;;;;;;7.43;4.40;;;5.10;80.90;;;4.09;68.29;95631.28;5036457;28;20204;-81
2021/12/13 06:05:17;;;;;;;6.00;4.50;;;5.10;80.90;;;4.06;68.91;95634.97;5036358;28;20216;-80
2021/12/13 06:07:56;;;;;;;4.97;4.05;;;5.10;80.90;;;4.06;68.45;95640.16;5028877;28;20586;-80
2021/12/13 06:10:36;;;;;;;5.80;4.60;;;5.10;80.90;;;4.06;68.35;95636.75;5063528;28;20216;-80
2021/12/13 06:13:08;;;;;;;7.00;4.50;;;5.10;80.90;;;4.06;68.72;95647.94;5050519;28;20200;-80
2021/12/13 06:15:42;;;;;;;6.72;3.90;;;5.10;80.90;;;4.03;68.51;95640.44;5051273;28;20283;-80
2021/12/13 06:18:21;;;;;;;5.25;3.67;;;5.10;80.90;;;4.08;68.55;95640.84;5035284;28;20196;-80
2021/12/13 06:20:59;;;;;;;4.90;4.03;;;5.10;81.00;;;4.09;68.42;95647.69;5035298;28;20243;-79
2021/12/13 06:23:31;;;;;;;5.13;4.00;;;5.10;81.00;;;4.13;68.44;95662.03;5029267;28;20192;-81
2021/12/13 06:26:10;;;;;;;5.10;3.88;;;5.10;80.90;;;4.13;68.23;95666.44;5018762;28;20260;-81
2021/12/13 06:28:45;;;;;;;4.05;3.50;;;5.10;81.00;;;4.16;68.52;95666.16;5045743;28;20217;-80
2021/12/13 06:31:18;;;;;;;4.30;3.22;;;5.10;80.90;;;4.15;68.58;95667.09;5052769;28;20295;-81
2021/12/13 06:33:58;;;;;;;3.85;3.45;;;5.10;81.00;;;4.14;68.14;95668.88;5044582;28;20189;-80
2021/12/13 06:36:32;;;;;;;3.40;3.10;;;5.10;80.90;;;4.17;68.35;95665.19;5053941;28;20308;-81
2021/12/13 06:39:30;;;;;;;3.72;3.30;;;5.10;81.00;;;4.12;68.47;95669.97;5042816;28;20715;-80
2021/12/13 06:42:04;;;;;;;6.60;3.22;;;5.10;81.20;;;4.14;68.88;95668.88;5056834;28;20200;-79
2021/12/13 06:44:41;;;;;;;5.47;3.70;;;5.10;81.00;;;4.13;68.83;95672.44;5067719;28;20222;-81
2021/12/13 06:47:13;;;;;;;4.78;3.80;;;5.10;81.10;;;4.14;68.60;95676.66;5051409;28;20242;-80
2021/12/13 06:49:53;;;;;;;4.18;3.45;;;5.10;81.20;;;4.16;68.61;95685.16;5067644;28;20235;-81
2021/12/13 06:52:26;;;;;;;4.82;3.92;;;5.10;81.10;;;4.15;68.65;95680.06;5049741;28;20651;-80
2021/12/13 06:55:04;;;;;;;4.32;3.80;;;5.10;81.20;;;4.15;68.51;95674.88;5013992;28;20702;-80
2021/12/13 06:57:31;;;;;;;5.57;3.97;;;5.10;81.20;;;4.18;68.76;95681.63;5051117;28;20200;-81
2021/12/13 07:00:04;;;;;;;4.43;3.95;;;5.10;81.20;;;4.13;68.95;95676.81;5050850;28;20582;-81
2021/12/13 07:02:45;;;;;;;5.00;4.18;;;5.10;81.30;;;4.06;68.95;95670.50;5051100;28;20302;-80
2021/12/13 07:05:31;;;;;;;4.93;4.22;;;5.10;81.40;;;4.11;68.98;95683.91;5034478;28;20223;-79
2021/12/13 07:08:31;;;;;;;6.70;4.30;;;5.10;81.40;;;4.07;69.27;95669.56;5065707;28;20253;-79
2021/12/13 07:11:08;;;;;;;4.65;4.03;;;5.10;81.50;;;4.07;69.45;95679.94;5060543;28;20230;-80
2021/12/13 07:13:44;;;;;;;4.53;3.72;;;5.10;81.60;;;4.06;69.33;95679.09;5067895;28;20278;-81
2021/12/13 07:16:21;;;;;;;3.65;3.35;;;5.10;81.60;;;4.07;69.24;95685.94;5034065;28;20334;-79
2021/12/13 07:19:31;;;;;;;5.88;3.90;;;5.10;81.60;;;4.03;69.36;95674.19;5067588;28;20865;-79
2021/12/13 07:22:03;;;;;;;3.95;3.50;;;5.10;81.80;;;4.06;69.96;95692.09;5048685;28;20196;-80
2021/12/13 07:24:43;;;;;;;4.65;3.60;;;5.10;81.80;;;4.05;69.35;95690.44;5033960;28;20697;-79
2021/12/13 07:27:24;;;;;;;3.50;3.08;;;5.10;81.90;;;4.03;69.79;95688.94;5017777;28;20238;-80
2021/12/13 07:29:57;;;;;;;5.00;3.75;;;5.10;81.90;;;4.07;69.79;95704.13;5031850;28;20255;-79
2021/12/13 07:32:33;;;;;;;8.20;3.88;;;5.10;82.10;;;4.04;69.56;95701.78;5050738;28;20216;-79
2021/12/13 07:35:24;;;;;;;5.15;4.25;;;5.10;82.10;;;4.09;69.51;95701.38;5033709;28;20302;-79
2021/12/13 07:37:55;;;;;;;4.40;3.92;;;5.00;82.10;;;4.11;69.66;95708.09;5031760;28;20247;-80
2021/12/13 07:40:46;;;;;;;4.82;4.25;;;5.10;82.20;;;4.12;69.69;95725.31;5034169;28;20306;-79
2021/12/13 07:43:45;;;;;;;6.10;4.75;;;5.10;82.20;;;4.10;69.76;95710.81;5051185;28;20287;-79
2021/12/13 07:46:19;;;;;;;5.80;4.63;;;5.10;82.20;;;4.14;70.00;95714.81;5039347;28;20213;-79
2021/12/13 07:48:46;;;;;;;6.07;4.90;;;5.10;82.30;;;4.17;69.92;95717.13;5064198;28;20193;-79
2021/12/13 07:51:27;;;;;;;5.07;4.15;;;5.10;82.30;;;4.19;69.92;95717.81;5047334;28;20246;-79
2021/12/13 07:53:58;;;;;;;8.57;4.00;;;5.10;82.40;;;4.20;70.01;95729.00;5015112;28;20708;-78
2021/12/13 07:56:29;;;;;;;5.13;3.83;;;5.20;82.50;;;4.25;69.92;95740.66;5066160;28;20219;-79
2021/12/13 07:59:24;;;;;;;8.82;4.10;;;5.20;82.50;;;4.27;69.92;95733.56;5065216;28;20608;-79
2021/12/13 08:01:56;;;;;;;8.20;3.95;;;5.20;82.50;;;4.32;69.99;95740.94;5033266;28;20200;-79
2021/12/13 08:04:52;;;;;;;7.13;4.30;;;5.20;82.50;;;4.32;70.14;95743.53;5068127;28;20695;-79
2021/12/13 08:07:43;;;;;;;7.30;4.65;;;5.20;82.40;;;4.32;69.95;95749.56;5051709;28;20657;-79
2021/12/13 08:10:25;;;;;;;4.75;4.28;;;5.30;82.50;;;4.33;70.08;95740.81;5067160;28;20215;-79
2021/12/13 08:13:05;;;;;;;5.60;4.47;;;5.30;82.50;;;4.41;70.03;95753.13;5048716;28;20214;-79
2021/12/13 08:15:54;;;;;;;5.00;4.22;;;5.30;82.50;;;4.45;70.03;95748.50;5050717;28;20258;-79
2021/12/13 08:18:38;;;;;;;6.10;4.40;;;5.30;82.50;;;4.48;69.74;95754.25;5033565;28;20666;-79
2021/12/13 08:21:20;;;;;;;5.53;4.22;;;5.40;82.50;;;4.54;69.51;95759.88;5034308;28;20223;-78
2021/12/13 08:24:00;;;;;;;6.38;4.10;;;5.40;82.50;;;4.62;69.50;95755.63;5017854;28;20238;-79
2021/12/13 08:26:37;;;;;;;15.88;4.72;;;5.40;82.50;;;4.69;69.40;95757.69;5034211;28;20200;-79
2021/12/13 08:29:23;;;;;;;5.60;4.70;;;5.50;82.50;;;4.74;69.22;95763.34;5034062;28;20246;-79
2021/12/13 08:31:53;;;;;;;7.88;4.70;;;5.50;82.50;;;4.79;69.21;95769.75;5034033;28;20187;-79
2021/12/13 08:34:31;;;;;;;9.95;4.80;;;5.60;82.50;;;4.86;69.18;95774.41;5033764;28;20218;-79
2021/12/13 08:37:01;;;;;;;8.18;5.18;;;5.60;82.40;;;4.89;69.04;95774.97;5023506;28;20228;-77
2021/12/13 08:39:35;;;;;;;6.63;4.93;;;5.60;82.40;;;4.95;68.78;95773.63;5040497;28;20243;-77
2021/12/13 08:42:21;;;;;;;8.13;4.93;;;5.70;82.50;;;4.99;68.81;95764.59;5039524;28;20291;-78
2021/12/13 08:45:12;;;;;;;5.10;4.20;;;5.70;82.40;;;5.05;68.76;95769.22;5032132;28;20223;-77
2021/12/13 08:47:45;;;;;;;6.30;4.10;;;5.80;82.40;;;5.09;68.75;95762.81;5027770;28;20335;-78
2021/12/13 08:50:24;;;;;;;4.65;3.67;;;5.80;82.40;;;5.14;68.65;95759.81;5015754;28;20244;-79
2021/12/13 08:53:03;;;;;;;7.00;3.85;;;5.90;82.40;;;5.17;68.86;95758.72;5046753;28;20203;-79
2021/12/13 08:55:37;;;;;;;5.03;3.65;;;5.90;82.30;;;5.20;68.39;95761.88;5031120;28;20248;-79
2021/12/13 08:58:04;;;;;;;4.18;3.47;;;5.90;82.30;;;5.20;68.81;95767.06;5032348;28;20189;-79
2021/12/13 09:00:47;;;;;;;4.43;3.90;;;6.00;82.30;;;5.21;68.83;95760.91;5051771;28;20215;-79
2021/12/13 09:03:35;;;;;;;6.00;3.80;;;6.00;82.30;;;5.19;69.05;95756.78;5051624;28;20203;-79
2021/12/13 09:06:17;;;;;;;4.15;3.47;;;6.00;82.30;;;5.18;69.03;95763.78;5036231;28;20658;-79
2021/12/13 09:09:14;;;;;;;4.32;3.38;;;6.00;82.20;;;5.18;68.81;95760.38;5036581;28;20239;-79
2021/12/13 09:11:58;;;;;;;4.72;3.88;;;6.00;82.30;;;5.19;68.92;95762.81;5031859;28;20267;-78
2021/12/13 09:14:39;;;;;;;9.05;4.35;;;6.00;83.10;;;5.23;68.62;95768.56;5050443;28;20218;-79
2021/12/13 09:17:38;;;;;;;11.05;4.80;;;6.10;82.30;;;5.22;68.77;95774.72;5050266;28;20729;-79
2021/12/13 09:20:23;;;;;;;6.10;5.22;;;6.10;82.20;;;5.23;68.50;95768.56;5025240;28;20224;-77
2021/12/13 09:23:05;;;;;;;6.80;4.72;;;6.10;82.10;;;5.20;68.84;95780.06;5021473;28;20205;-78
2021/12/13 09:26:11;;;;;;;7.30;5.18;;;6.10;82.20;;;5.16;68.99;95773.50;5065481;28;20232;-78
2021/12/13 09:28:59;;;;;;;7.07;5.13;;;6.10;82.10;;;5.18;69.12;95776.78;5066093;28;20193;-78
2021/12/13 09:31:39;;;;;;;7.40;4.65;;;6.10;82.10;;;5.16;68.88;95780.47;5051950;28;20215;-78
2021/12/13 09:34:17;;;;;;;12.77;5.18;;;6.10;82.10;;;5.16;69.27;95770.88;4999835;28;20347;-79
2021/12/13 09:36:51;;;;;;;9.57;4.40;;;6.10;82.20;;;5.18;69.24;95774.19;5048447;28;20231;-79
2021/12/13 09:39:30;;;;;;;5.47;4.30;;;6.00;82.10;;;5.21;69.15;95771.31;5066349;28;20287;-78
2021/12/13 09:42:05;;;;;;;7.05;4.00;;;6.10;82.20;;;5.23;69.12;95773.78;5051569;28;20192;-78
2021/12/13 09:44:44;;;;;;;5.03;4.10;;;6.10;82.30;;;5.23;69.45;95766.78;5036386;28;20231;-78
2021/12/13 09:47:31;;;;;;;4.80;4.00;;;6.10;82.40;;;5.28;68.99;95774.19;5052085;28;20524;-78
2021/12/13 09:49:58;;;;;;;5.45;3.80;;;6.10;82.40;;;5.31;69.31;95771.31;5048888;28;20224;-79
2021/12/13 09:52:51;;;;;;;3.92;3.53;;;6.10;82.40;;;5.35;68.94;95766.66;5050715;28;20736;-77
2021/12/13 09:55:34;;;;;;;6.53;3.20;;;6.20;82.40;;;5.37;68.91;95770.75;5035433;28;20240;-78
2021/12/13 09:58:17;;;;;;;3.80;2.85;;;6.20;82.40;;;5.41;68.94;95779.91;5052561;28;20603;-78
2021/12/13 10:01:05;;;;;;;4.47;3.13;;;6.20;82.40;;;5.42;68.81;95773.75;5052425;28;20629;-77
2021/12/13 10:03:48;;;;;;;3.17;2.88;;;6.20;82.40;;;5.43;69.09;95769.38;5035789;28;20226;-79
2021/12/13 10:06:35;;;;;;;3.03;2.53;;;6.20;82.30;;;5.40;68.99;95764.47;5053345;28;20261;-78
2021/12/13 10:09:16;;;;;;;4.90;3.35;;;6.30;82.50;;;5.48;68.98;95774.16;5052504;28;20636;-78
2021/12/13 10:11:57;;;;;;;3.25;2.95;;;6.30;82.40;;;5.48;68.88;95777.59;5053053;28;20192;-78
2021/12/13 10:14:38;;;;;;;6.53;2.55;;;6.30;82.40;;;5.47;68.75;95769.91;5052650;28;20215;-78
2021/12/13 10:17:10;;;;;;;4.07;2.85;;;6.30;82.30;;;5.50;nan;95785.25;5035993;28;20235;-77
2021/12/13 10:19:52;;;;;;;3.20;2.90;;;6.30;82.40;;;5.49;69.09;95768.00;5032556;28;20220;-79
2021/12/13 10:22:26;;;;;;;3.03;2.63;;;6.30;82.40;;;5.53;69.24;95769.34;5026264;28;20196;-78
2021/12/13 10:25:27;;;;;;;3.35;2.83;;;6.30;82.40;;;5.57;68.88;95768.13;5035717;28;20248;-77
2021/12/13 10:27:55;;;;;;;3.58;3.28;;;6.40;82.40;;;5.61;69.28;95772.94;5035867;28;20653;-77
2021/12/13 10:30:38;;;;;;;4.32;3.80;;;6.40;82.50;;;5.63;69.06;95770.19;5035708;28;20220;-77
2021/12/13 10:33:07;;;;;;;4.47;3.70;;;6.40;82.50;;;5.67;68.90;95771.53;5052031;28;20657;-76
2021/12/13 10:35:42;;;;;;;4.13;3.72;;;6.40;82.50;;;5.70;69.03;95770.44;5034482;28;20212;-78
2021/12/13 10:38:27;;;;;;;4.70;4.22;;;6.50;82.50;;;5.68;68.86;95767.16;5052022;28;20199;-77
2021/12/13 10:41:05;;;;;;;5.20;4.40;;;6.50;82.50;;;5.70;68.83;95775.63;5034213;28;20293;-78
2021/12/13 10:43:40;;;;;;;3.95;3.45;;;6.50;82.50;;;5.71;68.96;95766.88;5051974;28;20219;-78
2021/12/13 10:46:21;;;;;;;4.43;3.78;;;6.50;82.50;;;5.74;68.95;95770.00;5035654;28;20184;-79
2021/12/13 10:48:56;;;;;;;4.38;3.70;;;6.50;82.50;;;5.77;69.07;95768.91;5051779;28;20187;-78
2021/12/13 10:51:34;;;;;;;6.43;3.70;;;6.50;82.50;;;5.80;68.75;95762.59;5035350;28;20265;-78
2021/12/13 10:54:15;;;;;;;5.93;4.30;;;6.60;82.50;;;5.77;68.99;95761.09;5035164;28;20211;-78
2021/12/13 10:56:54;;;;;;;7.05;3.65;;;6.60;82.50;;;5.74;68.83;95751.78;5035160;28;20247;-78
2021/12/13 10:59:25;;;;;;;6.38;4.25;;;6.60;82.50;;;5.79;69.04;95760.97;5034939;28;20219;-78
2021/12/13 11:01:58;;;;;;;7.05;3.80;;;6.60;82.40;;;5.81;68.97;95756.44;5035344;28;20315;-78
2021/12/13 11:04:40;;;;;;;4.20;3.80;;;6.60;82.40;;;5.83;68.95;95759.72;5034937;28;20256;-78
2021/12/13 11:07:10;;;;;;;5.68;3.70;;;6.60;83.30;;;5.82;69.04;95758.06;5018746;28;20254;-78
2021/12/13 11:09:42;;;;;;;6.30;3.65;;;6.60;82.40;;;5.82;69.06;95748.47;5050929;28;20223;-78
2021/12/13 11:12:17;;;;;;;5.20;4.18;;;6.60;82.40;;;5.86;68.73;95754.22;5035236;28;20192;-78
2021/12/13 11:14:48;;;;;;;4.22;3.50;;;6.60;82.50;;;5.89;68.87;95753.94;5052543;28;20752;-78
2021/12/13 11:17:21;;;;;;;3.65;3.35;;;6.60;82.40;;;5.84;68.96;95753.56;5035030;28;20239;-78
2021/12/13 11:19:58;;;;;;;4.60;3.22;;;6.70;82.50;;;5.84;68.80;95749.16;5051397;28;20755;-78
2021/12/13 11:22:31;;;;;;;3.95;3.55;;;6.70;82.40;;;5.86;68.88;95754.22;5018781;28;20622;-77
2021/12/13 11:25:09;;;;;;;4.53;3.65;;;6.70;82.50;;;5.85;68.78;95753.41;5034774;28;20258;-78
2021/12/13 11:27:37;;;;;;;3.78;3.47;;;6.70;82.40;;;5.87;68.97;95754.09;5051376;28;20192;-78
2021/12/13 11:30:15;;;;;;;3.97;3.25;;;6.70;82.40;;;5.86;68.66;95747.25;5018242;28;20224;-78
2021/12/13 11:32:58;;;;;;;4.25;3.60;;;6.70;82.40;;;5.92;68.81;95753.69;5035000;28;20203;-78